Time;durP1;ratioP1;P1;durP2;ratioP2;P2;SDS_P1;SDS_P2;PMS_P1;PMS_P2;Temp;Humidity;BMP_temperature;BMP_pressure;BME280_temperature;BME280_humidity;BME280_pressure;Samples;Min_cycle;Max_cycle;Signal;HPM_P1;HPM_P2
2022/09/24 00:01:33;;;;;;;;;;;;;;;21.58;56.42;101128.41;7405598;19;1548;-73
2022/09/24 00:04:03;;;;;;;;;;;;;;;21.60;56.15;101118.34;7405820;19;1532;-74
2022/09/24 00:06:32;;;;;;;;;;;;;;;21.58;56.33;101111.41;7406139;19;1489;-74
2022/09/24 00:09:00;;;;;;;;;;;;;;;21.60;56.16;101122.88;7407330;19;1340;-73
2022/09/24 00:11:31;;;;;;;;;;;;;;;21.61;56.34;101128.13;7407089;19;1363;-74
2022/09/24 00:14:00;;;;;;;;;;;;;;;21.58;56.41;101120.31;7407234;19;1539;-73
2022/09/24 00:16:30;;;;;;;;;;;;;;;21.60;56.22;101122.88;7406850;19;1853;-73
2022/09/24 00:18:59;;;;;;;;;;;;;;;21.58;56.28;101116.78;7407290;19;1347;-74
2022/09/24 00:21:29;;;;;;;;;;;;;;;21.58;56.51;101125.72;7408499;19;1576;-74
2022/09/24 00:23:58;;;;;;;;;;;;;;;21.61;56.42;101132.66;7408125;19;1615;-74
2022/09/24 00:29:11;;;;;;;;;;;;;;;21.60;56.48;101128.25;7407088;19;1670;-75
2022/09/24 00:31:39;;;;;;;;;;;;;;;21.60;56.41;101122.88;7406916;19;1504;-75
2022/09/24 00:34:08;;;;;;;;;;;;;;;21.60;56.26;101128.25;7406334;19;1532;-58
2022/09/24 00:36:36;;;;;;;;;;;;;;;21.59;56.37;101110.44;7403965;19;1858;-75
2022/09/24 00:39:05;;;;;;;;;;;;;;;21.56;56.56;101116.94;7406141;19;1532;-75
2022/09/24 00:41:35;;;;;;;;;;;;;;;21.57;56.39;101117.81;7406285;19;1375;-74
2022/09/24 00:44:19;;;;;;;;;;;;;;;21.56;56.26;101099.94;7406403;19;1066;-74
2022/09/24 00:46:50;;;;;;;;;;;;;;;21.58;56.48;101120.31;7406521;19;1549;-75
2022/09/24 00:49:20;;;;;;;;;;;;;;;21.57;56.22;101101.66;7406314;19;1532;-74
2022/09/24 00:51:50;;;;;;;;;;;;;;;21.55;56.54;101117.09;7406042;19;1606;-75
2022/09/24 00:54:21;;;;;;;;;;;;;;;21.54;56.50;101115.38;7405579;19;1536;-58
2022/09/24 00:56:50;;;;;;;;;;;;;;;21.59;56.29;101115.81;7404742;19;1849;-58
2022/09/24 00:59:21;;;;;;;;;;;;;;;21.53;56.32;101105.63;7404898;19;1310;-58
2022/09/24 01:01:57;;;;;;;;;;;;;;;21.53;56.58;101111.00;7403691;19;1475;-58
2022/09/24 01:04:27;;;;;;;;;;;;;;;21.58;56.29;101114.09;7404032;19;1641;-58
2022/09/24 01:06:56;;;;;;;;;;;;;;;21.59;56.30;101102.34;7405255;19;1635;-58
2022/09/24 01:09:26;;;;;;;;;;;;;;;21.57;56.44;101107.03;7405046;19;1310;-58
2022/09/24 01:12:00;;;;;;;;;;;;;;;21.57;56.42;101098.97;7404445;19;1549;-58
2022/09/24 01:14:40;;;;;;;;;;;;;;;21.58;56.42;101101.50;7403500;19;1626;-56
2022/09/24 01:17:18;;;;;;;;;;;;;;;21.54;56.43;101107.31;7403805;19;1842;-57
2022/09/24 01:20:07;;;;;;;;;;;;;;;21.55;56.19;101104.47;7405506;19;1512;-58
2022/09/24 01:22:44;;;;;;;;;;;;;;;21.53;56.45;101116.41;7401448;19;1682;-58
2022/09/24 01:25:17;;;;;;;;;;;;;;;21.53;56.62;101102.94;7404045;19;1394;-58
2022/09/24 01:27:59;;;;;;;;;;;;;;;21.55;56.32;101109.88;7404710;19;1669;-58
2022/09/24 01:30:33;;;;;;;;;;;;;;;21.52;56.47;101102.06;7406819;19;1204;-58
2022/09/24 01:33:04;;;;;;;;;;;;;;;21.50;56.48;101112.13;7402616;19;1724;-58
2022/09/24 01:35:34;;;;;;;;;;;;;;;21.49;56.34;101109.56;7405500;19;1682;-58
2022/09/24 01:38:03;;;;;;;;;;;;;;;21.52;56.35;101115.53;7403210;19;1853;-58
2022/09/24 01:40:32;;;;;;;;;;;;;;;21.54;56.26;101115.38;7401487;19;1512;-75
2022/09/24 01:43:01;;;;;;;;;;;;;;;21.52;56.24;101123.59;7402912;19;1540;-58
2022/09/24 01:45:33;;;;;;;;;;;;;;;21.52;56.48;101122.75;7403041;19;1520;-58
2022/09/24 01:48:02;;;;;;;;;;;;;;;21.53;56.60;101121.78;7403189;19;1691;-75
2022/09/24 01:50:32;;;;;;;;;;;;;;;21.54;56.45;101123.47;7404129;19;1569;-75
2022/09/24 01:53:04;;;;;;;;;;;;;;;21.52;56.13;101103.91;7403902;19;1541;-75
2022/09/24 01:55:37;;;;;;;;;;;;;;;21.52;56.12;101125.44;7402944;19;1898;-58
2022/09/24 01:58:06;;;;;;;;;;;;;;;21.53;56.39;101121.78;7401930;19;1841;-76
2022/09/24 02:00:40;;;;;;;;;;;;;;;21.54;56.14;101128.84;7399744;19;1300;-75
2022/09/24 02:03:11;;;;;;;;;;;;;;;21.55;56.35;101128.69;7401945;19;1598;-75
2022/09/24 02:05:41;;;;;;;;;;;;;;;21.52;56.16;101126.28;7403285;19;1438;-75
2022/09/24 02:08:13;;;;;;;;;;;;;;;21.53;56.26;101124.47;7402914;19;1676;-75
2022/09/24 02:10:47;;;;;;;;;;;;;;;21.52;56.04;101128.97;7403689;19;1540;-75
2022/09/24 02:13:17;;;;;;;;;;;;;;;21.51;56.12;101129.16;7403841;19;1488;-76
2022/09/24 02:15:51;;;;;;;;;;;;;;;21.54;56.26;101128.84;7404226;19;1458;-75
2022/09/24 02:18:23;;;;;;;;;;;;;;;21.49;56.57;101120.34;7400664;19;1846;-76
2022/09/24 02:20:53;;;;;;;;;;;;;;;21.49;56.35;101114.94;7400199;19;1629;-76
2022/09/24 02:23:22;;;;;;;;;;;;;;;21.48;56.37;101108.72;7399511;19;1301;-75
2022/09/24 02:25:52;;;;;;;;;;;;;;;21.47;56.34;101133.97;7402100;19;1208;-76
2022/09/24 02:28:20;;;;;;;;;;;;;;;21.50;56.20;101132.81;7401928;19;1509;-76
2022/09/24 02:30:53;;;;;;;;;;;;;;;21.50;56.25;101136.34;7403718;19;1296;-76
2022/09/24 02:36:04;;;;;;;;;;;;;;;21.49;56.09;101131.97;7403435;19;1324;-76
2022/09/24 02:38:32;;;;;;;;;;;;;;;21.51;56.12;101139.91;7399945;19;1861;-76
2022/09/24 02:41:01;;;;;;;;;;;;;;;21.45;56.27;101135.94;7402437;19;1745;-76
2022/09/24 02:43:29;;;;;;;;;;;;;;;21.51;56.22;101148.81;7400882;19;1643;-76
2022/09/24 02:46:00;;;;;;;;;;;;;;;21.48;56.29;101141.03;7402653;19;1342;-75
2022/09/24 02:48:29;;;;;;;;;;;;;;;21.50;56.27;101144.41;7403103;19;1638;-76
2022/09/24 02:50:57;;;;;;;;;;;;;;;21.47;56.18;101141.16;7402879;19;1431;-75
2022/09/24 02:53:26;;;;;;;;;;;;;;;21.48;56.17;101145.56;7403199;19;1482;-76
2022/09/24 02:55:54;;;;;;;;;;;;;;;21.47;56.07;101149.22;7408875;19;1667;-76
2022/09/24 02:58:24;;;;;;;;;;;;;;;21.46;56.04;101145.69;7407140;19;1841;-76
2022/09/24 03:00:52;;;;;;;;;;;;;;;21.45;56.33;101152.94;7409022;19;1638;-76
2022/09/24 03:03:23;;;;;;;;;;;;;;;21.46;56.15;101151.06;7406666;19;1785;-76
2022/09/24 03:05:53;;;;;;;;;;;;;;;21.45;56.15;101152.94;7410298;19;1647;-76
2022/09/24 03:08:23;;;;;;;;;;;;;;;21.44;56.06;101153.91;7408756;19;1675;-75
2022/09/24 03:10:52;;;;;;;;;;;;;;;21.48;56.13;101159.00;7408780;19;1336;-76
2022/09/24 03:13:21;;;;;;;;;;;;;;;21.44;56.17;101159.28;7408258;19;1297;-76
2022/09/24 03:15:49;;;;;;;;;;;;;;;21.45;56.13;101165.53;7408670;19;1468;-76
2022/09/24 03:18:18;;;;;;;;;;;;;;;21.44;56.03;101161.13;7407054;19;1856;-76
2022/09/24 03:20:55;;;;;;;;;;;;;;;21.44;56.18;101163.81;7409150;19;1427;-76
2022/09/24 03:23:24;;;;;;;;;;;;;;;21.40;56.37;101165.91;7408422;19;1643;-76
2022/09/24 03:25:52;;;;;;;;;;;;;;;21.47;56.33;101173.44;7408525;19;1642;-76
2022/09/24 03:28:21;;;;;;;;;;;;;;;21.41;56.15;101173.00;7408163;19;1723;-76
2022/09/24 03:33:37;;;;;;;;;;;;;;;21.39;56.14;101169.59;7404818;19;1481;-76
2022/09/24 03:36:10;;;;;;;;;;;;;;;21.42;56.21;101173.84;7406735;19;1529;-76
2022/09/24 03:38:38;;;;;;;;;;;;;;;21.42;56.18;101177.38;7407156;19;1870;-76
2022/09/24 03:41:08;;;;;;;;;;;;;;;21.42;56.39;101180.06;7408206;19;1758;-76
2022/09/24 03:43:37;;;;;;;;;;;;;;;21.41;56.13;101183.75;7406922;19;1564;-76
2022/09/24 03:46:06;;;;;;;;;;;;;;;21.44;56.22;101199.66;7407424;19;1265;-75
2022/09/24 03:48:35;;;;;;;;;;;;;;;21.43;56.21;101197.97;7408701;19;1539;-75
2022/09/24 03:51:05;;;;;;;;;;;;;;;21.40;56.35;101195.50;7408781;19;1611;-76
2022/09/24 03:53:36;;;;;;;;;;;;;;;21.43;56.19;101199.81;7407626;19;1614;-75
2022/09/24 03:56:06;;;;;;;;;;;;;;;21.48;56.14;101194.00;7286819;19;1486;-74
2022/09/24 03:58:37;;;;;;;;;;;;;;;21.42;56.40;101201.59;7397306;19;1850;-77
2022/09/24 04:01:06;;;;;;;;;;;;;;;21.39;56.58;101199.19;7341975;19;12567;-78
2022/09/24 04:03:34;;;;;;;;;;;;;;;21.39;56.75;101207.28;7401011;19;1551;-78
2022/09/24 04:06:03;;;;;;;;;;;;;;;21.36;56.73;101188.72;7402556;19;1445;-77
2022/09/24 04:08:31;;;;;;;;;;;;;;;21.42;56.53;101216.91;7405411;19;1615;-78
2022/09/24 04:11:02;;;;;;;;;;;;;;;21.37;56.72;101201.19;7407630;19;1284;-78
2022/09/24 04:13:31;;;;;;;;;;;;;;;21.41;56.64;101204.44;7406793;19;1543;-78
2022/09/24 04:16:03;;;;;;;;;;;;;;;21.37;56.63;101232.63;7406702;19;1540;-77
2022/09/24 04:18:31;;;;;;;;;;;;;;;21.38;56.64;101219.00;7405190;19;1849;-73
2022/09/24 04:21:00;;;;;;;;;;;;;;;21.38;56.71;101237.84;7407074;19;1683;-77
2022/09/24 04:23:30;;;;;;;;;;;;;;;21.36;56.90;101231.75;7406326;19;1635;-78
2022/09/24 04:26:00;;;;;;;;;;;;;;;21.35;56.68;101224.69;7406342;19;1548;-74
2022/09/24 04:28:32;;;;;;;;;;;;;;;21.36;56.75;101234.44;7405986;19;1587;-74
2022/09/24 04:31:00;;;;;;;;;;;;;;;21.37;56.92;101241.53;7406131;19;1327;-74
2022/09/24 04:33:29;;;;;;;;;;;;;;;21.38;56.93;101229.78;7406537;19;1425;-75
2022/09/24 04:35:57;;;;;;;;;;;;;;;21.41;56.81;101248.34;7406283;19;1797;-77
2022/09/24 04:38:26;;;;;;;;;;;;;;;21.44;56.55;101253.47;7405349;19;1856;-78
2022/09/24 04:52:06;;;;;;;;;;;;;;;21.52;56.63;101243.84;7432999;19;1739;-40
2022/09/24 04:54:52;;;;;;;;;;;;;;;21.54;56.52;101240.00;7436639;19;1975;-40
2022/09/24 04:57:21;;;;;;;;;;;;;;;21.53;56.41;101251.78;7436124;19;1640;-41
2022/09/24 04:59:55;;;;;;;;;;;;;;;21.55;56.58;101251.66;7435936;19;1863;-42
2022/09/24 05:05:25;;;;;;;;;;;;;;;21.53;56.45;101259.84;7433545;19;1716;-40
2022/09/24 05:08:06;;;;;;;;;;;;;;;21.50;56.92;101262.81;7436152;19;1722;-40
2022/09/24 05:10:34;;;;;;;;;;;;;;;21.49;56.61;101261.13;7434119;19;1694;-41
2022/09/24 05:13:06;;;;;;;;;;;;;;;21.49;56.75;101262.94;7436791;19;1506;-41
2022/09/24 05:15:39;;;;;;;;;;;;;;;21.60;56.12;101273.59;7435673;19;1463;-42
2022/09/24 05:18:21;;;;;;;;;;;;;;;21.66;55.98;101267.63;7436070;19;1913;-40
2022/09/24 05:20:57;;;;;;;;;;;;;;;21.62;56.10;101275.13;7433147;19;1868;-41
2022/09/24 05:23:29;;;;;;;;;;;;;;;21.61;56.41;101270.75;7435364;19;1851;-41
2022/09/24 05:28:45;;;;;;;;;;;;;;;21.75;55.77;101277.56;7436827;19;1619;-41
2022/09/24 05:31:17;;;;;;;;;;;;;;;21.82;55.86;101281.38;7434221;19;2030;-41
2022/09/24 05:33:56;;;;;;;;;;;;;;;21.83;55.89;101293.88;7434465;19;1671;-41
2022/09/24 05:36:27;;;;;;;;;;;;;;;21.85;55.75;101278.41;7434836;19;1661;-41
2022/09/24 05:41:45;;;;;;;;;;;;;;;21.99;55.59;101289.75;7430468;19;2213;-41
2022/09/24 05:44:18;;;;;;;;;;;;;;;22.17;55.52;101288.03;7436009;19;1481;-42
2022/09/24 05:46:55;;;;;;;;;;;;;;;22.21;55.15;101278.66;7435164;19;1527;-42
2022/09/24 05:49:26;;;;;;;;;;;;;;;22.15;55.50;101276.56;7433777;19;1432;-44
2022/09/24 05:51:57;;;;;;;;;;;;;;;22.22;55.60;101304.63;7418690;19;1843;-43
2022/09/24 05:54:38;;;;;;;;;;;;;;;22.26;55.56;101285.50;7404274;19;1547;-42
2022/09/24 05:57:07;;;;;;;;;;;;;;;22.30;55.67;101290.44;7405448;19;1754;-43
2022/09/24 05:59:39;;;;;;;;;;;;;;;22.22;56.42;101299.25;7403232;19;1861;-45
2022/09/24 06:02:14;;;;;;;;;;;;;;;22.24;56.34;101310.75;7405265;19;1456;-42
2022/09/24 06:04:43;;;;;;;;;;;;;;;22.28;56.47;101300.53;7405909;19;1705;-42
2022/09/24 06:07:35;;;;;;;;;;;;;;;22.38;56.12;101314.84;7405642;19;1676;-42
2022/09/24 06:10:09;;;;;;;;;;;;;;;22.42;55.99;101320.78;7405638;19;1512;-43
2022/09/24 06:15:31;;;;;;;;;;;;;;;22.48;56.18;101317.50;7403339;19;1648;-42
2022/09/24 06:18:02;;;;;;;;;;;;;;;22.48;55.94;101320.19;7405334;19;1879;-44
2022/09/24 06:20:31;;;;;;;;;;;;;;;22.48;55.91;101317.50;7402365;19;1865;-42
2022/09/24 06:23:11;;;;;;;;;;;;;;;22.54;56.09;101332.25;7402390;19;1703;-42
2022/09/24 06:25:53;;;;;;;;;;;;;;;22.50;56.20;101329.03;7400561;19;1822;-42
2022/09/24 06:28:32;;;;;;;;;;;;;;;22.47;56.34;101325.75;7403458;19;1576;-43
2022/09/24 06:31:11;;;;;;;;;;;;;;;22.53;56.49;101336.78;7404892;19;1913;-41
2022/09/24 06:33:41;;;;;;;;;;;;;;;22.61;56.62;101330.69;7404421;19;1556;-42
2022/09/24 06:36:10;;;;;;;;;;;;;;;22.60;56.34;101337.06;7402038;19;1486;-43
2022/09/24 06:38:44;;;;;;;;;;;;;;;22.62;56.50;101333.25;7406324;19;974;-42
2022/09/24 06:41:17;;;;;;;;;;;;;;;22.59;56.55;101336.22;7401136;19;1853;-42
2022/09/24 06:43:47;;;;;;;;;;;;;;;22.53;56.57;101341.34;7403304;19;1752;-43
2022/09/24 06:46:21;;;;;;;;;;;;;;;22.58;56.54;101333.66;7404596;19;1690;-43
2022/09/24 06:49:01;;;;;;;;;;;;;;;22.66;56.53;101352.69;7404666;19;1926;-42
2022/09/24 06:51:32;;;;;;;;;;;;;;;22.62;56.40;101338.63;7403546;19;1851;-43
2022/09/24 06:54:04;;;;;;;;;;;;;;;22.63;57.10;101344.88;7404291;19;1671;-41
2022/09/24 06:56:42;;;;;;;;;;;;;;;22.70;57.14;101353.22;7404905;19;1780;-42
2022/09/24 06:59:16;;;;;;;;;;;;;;;22.69;57.18;101357.75;7405825;19;1812;-41
2022/09/24 07:01:45;;;;;;;;;;;;;;;22.59;57.18;101357.78;7400539;19;1876;-43
2022/09/24 07:04:13;;;;;;;;;;;;;;;22.55;56.86;101356.38;7400735;19;1649;-42
2022/09/24 07:09:31;;;;;;;;;;;;;;;22.55;56.92;101366.31;7405409;19;907;-41
2022/09/24 07:12:04;;;;;;;;;;;;;;;22.51;56.57;101356.81;7404334;19;1941;-41
2022/09/24 07:14:36;;;;;;;;;;;;;;;22.50;56.25;101355.97;7402126;19;1839;-42
2022/09/24 07:17:08;;;;;;;;;;;;;;;22.61;56.39;101371.13;7404224;19;1584;-42
2022/09/24 07:19:39;;;;;;;;;;;;;;;22.67;55.79;101367.84;7400120;19;1906;-42
2022/09/24 07:22:11;;;;;;;;;;;;;;;22.86;56.21;101368.78;7401043;19;1845;-42
2022/09/24 07:24:43;;;;;;;;;;;;;;;22.85;55.23;101367.94;7403895;19;997;-41
2022/09/24 07:27:18;;;;;;;;;;;;;;;22.90;55.82;101373.75;7403971;19;1624;-41
2022/09/24 07:29:50;;;;;;;;;;;;;;;22.93;55.39;101378.84;7403774;19;1820;-42
2022/09/24 07:32:31;;;;;;;;;;;;;;;;;;;;;
2022/09/24 07:35:03;;;;;;;;;;;;;;;22.85;57.37;101378.72;7400960;19;1581;-41
2022/09/24 07:37:34;;;;;;;;;;;;;;;22.90;56.36;101362.97;7403321;19;1808;-42
2022/09/24 07:40:05;;;;;;;;;;;;;;;22.94;55.88;101369.75;7402912;19;1857;-43
2022/09/24 07:42:37;;;;;;;;;;;;;;;22.99;56.09;101380.94;7401920;19;1683;-42
2022/09/24 07:45:28;;;;;;;;;;;;;;;22.96;56.24;101369.59;7400902;19;1767;-43
2022/09/24 07:48:00;;;;;;;;;;;;;;;22.88;57.86;101362.25;7402782;19;1292;-42
2022/09/24 07:50:41;;;;;;;;;;;;;;;22.95;56.63;101363.34;7400326;19;1628;-41
2022/09/24 07:53:26;;;;;;;;;;;;;;;22.87;57.77;101365.94;7402092;19;1598;-42
2022/09/24 07:55:58;;;;;;;;;;;;;;;22.90;58.31;101368.34;7401020;19;1573;-42
2022/09/24 07:58:35;;;;;;;;;;;;;;;22.99;56.93;101374.72;7401274;19;1543;-41
2022/09/24 08:01:04;;;;;;;;;;;;;;;22.98;56.77;101362.22;7399289;19;1858;-42
2022/09/24 08:03:34;;;;;;;;;;;;;;;22.98;57.91;101373.88;7400989;19;1891;-41
2022/09/24 08:06:08;;;;;;;;;;;;;;;22.92;56.95;101366.38;7401961;19;1627;-42
2022/09/24 08:08:58;;;;;;;;;;;;;;;22.90;58.15;101354.00;7401994;19;1382;-42
2022/09/24 08:11:33;;;;;;;;;;;;;;;22.93;57.54;101373.44;7399297;19;1628;-42
2022/09/24 08:14:07;;;;;;;;;;;;;;;22.90;57.71;101376.44;7398154;19;1791;-43
2022/09/24 08:16:40;;;;;;;;;;;;;;;22.95;57.82;101359.81;7401008;19;1443;-42
2022/09/24 08:19:13;;;;;;;;;;;;;;;22.92;57.67;101355.56;7399691;19;1392;-42
2022/09/24 08:21:47;;;;;;;;;;;;;;;22.96;58.61;101359.69;7399793;19;1857;-41
2022/09/24 08:24:18;;;;;;;;;;;;;;;22.94;58.49;101358.97;7401583;19;1604;-42
2022/09/24 08:26:58;;;;;;;;;;;;;;;22.94;57.93;101352.72;7400811;19;1903;-43
2022/09/24 08:29:44;;;;;;;;;;;;;;;23.00;58.63;101352.16;7296841;19;14389;-42
2022/09/24 08:32:23;;;;;;;;;;;;;;;22.99;58.67;101348.56;7399463;19;1587;-42
2022/09/24 08:34:51;;;;;;;;;;;;;;;22.94;59.17;101350.88;7399214;19;1959;-43
2022/09/24 08:37:38;;;;;;;;;;;;;;;;;;;;;
2022/09/24 08:40:29;;;;;;;;;;;;;;;22.95;59.29;101341.78;7397469;19;1568;-41
2022/09/24 08:43:01;;;;;;;;;;;;;;;22.55;57.63;101350.13;7399322;19;1896;-42
2022/09/24 08:48:41;;;;;;;;;;;;;;;;;;;;;
2022/09/24 08:51:13;;;;;;;;;;;;;;;22.43;55.57;101362.91;7396607;19;1701;-42
2022/09/24 08:53:48;;;;;;;;;;;;;;;22.40;55.35;101355.09;7398515;19;1527;-42
2022/09/24 08:56:22;;;;;;;;;;;;;;;22.37;54.27;101358.09;7399503;19;1652;-42
2022/09/24 08:59:02;;;;;;;;;;;;;;;22.30;53.77;101352.41;7399325;19;1595;-42
2022/09/24 09:01:37;;;;;;;;;;;;;;;22.28;53.75;101349.00;7398486;19;1874;-41
2022/09/24 09:04:19;;;;;;;;;;;;;;;22.28;52.10;101342.78;7400466;19;1572;-42
2022/09/24 09:07:00;;;;;;;;;;;;;;;22.19;52.55;101352.56;7398241;19;1818;-42
2022/09/24 09:09:35;;;;;;;;;;;;;;;22.23;52.14;101346.72;7400492;19;1792;-42
2022/09/24 09:12:05;;;;;;;;;;;;;;;22.23;51.48;101349.41;7400574;19;1774;-42
2022/09/24 09:14:40;;;;;;;;;;;;;;;22.27;52.55;101355.41;7400851;19;1659;-43
2022/09/24 09:17:21;;;;;;;;;;;;;;;22.29;50.98;101349.88;7399808;19;1576;-42
2022/09/24 09:19:57;;;;;;;;;;;;;;;22.27;50.67;101368.03;7399309;19;1394;-41
2022/09/24 09:22:30;;;;;;;;;;;;;;;22.23;50.19;101357.50;7397793;19;1892;-41
2022/09/24 09:25:03;;;;;;;;;;;;;;;22.21;50.68;101356.78;7401293;19;1587;-41
2022/09/24 09:27:34;;;;;;;;;;;;;;;22.20;48.44;101347.03;7404885;19;1813;-41
2022/09/24 09:30:08;;;;;;;;;;;;;;;22.21;49.08;101350.56;7407895;19;1947;-42
2022/09/24 09:32:46;;;;;;;;;;;;;;;22.28;51.01;101358.94;7407700;19;1944;-41
2022/09/24 09:35:22;;;;;;;;;;;;;;;22.24;50.21;101345.78;7407694;19;1683;-41
2022/09/24 09:37:56;;;;;;;;;;;;;;;22.26;49.59;101344.78;7405890;19;1871;-41
2022/09/24 09:40:36;;;;;;;;;;;;;;;22.27;49.94;101347.34;7405235;19;1675;-41
2022/09/24 09:43:14;;;;;;;;;;;;;;;22.26;47.79;101339.38;7406891;19;1467;-41
2022/09/24 09:45:48;;;;;;;;;;;;;;;22.30;47.50;101335.41;7407802;19;1826;-41
2022/09/24 09:48:22;;;;;;;;;;;;;;;22.32;48.91;101323.50;7406058;19;1801;-41
2022/09/24 09:51:12;;;;;;;;;;;;;;;22.27;48.23;101333.84;7403217;19;1571;-41
2022/09/24 09:54:04;;;;;;;;;;;;;;;22.31;49.12;101329.03;7406451;19;1699;-40
2022/09/24 09:59:22;;;;;;;;;;;;;;;22.42;49.08;101318.97;7402846;19;2412;-41
2022/09/24 10:01:59;;;;;;;;;;;;;;;22.45;48.18;101317.81;7402715;19;1856;-42
2022/09/24 10:04:38;;;;;;;;;;;;;;;22.46;48.90;101311.41;7403475;19;1469;-42
2022/09/24 10:07:14;;;;;;;;;;;;;;;22.42;47.91;101321.66;7404184;19;1341;-42
2022/09/24 10:10:03;;;;;;;;;;;;;;;22.41;49.35;101327.19;7404329;19;1521;-43
2022/09/24 10:12:35;;;;;;;;;;;;;;;22.49;46.67;101313.81;7403501;19;1885;-42
2022/09/24 10:15:07;;;;;;;;;;;;;;;22.49;48.23;101321.91;7405352;19;1488;-43
2022/09/24 10:17:38;;;;;;;;;;;;;;;22.51;48.85;101321.78;7405280;19;1531;-43
2022/09/24 10:20:10;;;;;;;;;;;;;;;22.48;47.67;101339.06;7404625;19;1943;-43
2022/09/24 10:22:48;;;;;;;;;;;;;;;22.39;46.88;101332.69;7402139;19;1856;-44
2022/09/24 10:25:23;;;;;;;;;;;;;;;22.33;46.82;101316.28;7404611;19;1845;-42
2022/09/24 10:27:53;;;;;;;;;;;;;;;22.39;48.35;101307.59;7400127;19;2127;-44
2022/09/24 10:30:33;;;;;;;;;;;;;;;22.50;47.48;101301.19;7401448;19;1567;-46
2022/09/24 10:33:03;;;;;;;;;;;;;;;22.50;47.58;101293.09;7402320;19;1507;-46
2022/09/24 10:35:37;;;;;;;;;;;;;;;22.49;47.11;101305.75;7403378;19;1747;-46
2022/09/24 10:38:17;;;;;;;;;;;;;;;22.53;47.54;101299.06;7403465;19;1839;-46
2022/09/24 10:40:45;;;;;;;;;;;;;;;22.55;48.12;101291.69;7401957;19;1777;-46
2022/09/24 10:43:18;;;;;;;;;;;;;;;22.49;47.61;101283.34;7398937;19;1872;-45
2022/09/24 10:45:58;;;;;;;;;;;;;;;22.44;46.43;101292.72;7402918;19;1542;-45
2022/09/24 10:48:28;;;;;;;;;;;;;;;22.42;47.66;101285.75;7402836;19;1691;-45
2022/09/24 10:51:02;;;;;;;;;;;;;;;22.48;47.74;101306.72;7400997;19;1665;-45
2022/09/24 10:53:43;;;;;;;;;;;;;;;22.50;47.60;101274.25;7404671;19;1836;-45
2022/09/24 10:56:25;;;;;;;;;;;;;;;22.46;47.22;101281.75;7401747;19;1568;-45
2022/09/24 10:59:10;;;;;;;;;;;;;;;22.40;46.25;101272.44;7403523;19;1924;-45
2022/09/24 11:01:43;;;;;;;;;;;;;;;22.39;45.69;101273.41;7402870;19;1865;-44
2022/09/24 11:04:32;;;;;;;;;;;;;;;22.44;47.18;101256.81;7402295;19;1797;-45
2022/09/24 11:07:19;;;;;;;;;;;;;;;22.38;46.86;101268.16;7402050;19;1559;-45
2022/09/24 11:09:54;;;;;;;;;;;;;;;22.45;46.40;101266.59;7401516;19;1869;-44
2022/09/24 11:12:31;;;;;;;;;;;;;;;22.49;45.48;101259.91;7403133;19;1745;-44
2022/09/24 11:15:20;;;;;;;;;;;;;;;22.49;46.25;101235.66;7402998;19;1788;-44
2022/09/24 11:17:58;;;;;;;;;;;;;;;22.57;45.87;101257.34;7402487;19;1764;-44
2022/09/24 11:20:31;;;;;;;;;;;;;;;22.60;46.72;101238.19;7401103;19;1733;-46
2022/09/24 11:23:12;;;;;;;;;;;;;;;22.64;46.83;101249.50;7401148;19;1826;-44
2022/09/24 11:25:50;;;;;;;;;;;;;;;22.71;47.28;101237.13;7401550;19;1838;-40
2022/09/24 11:28:32;;;;;;;;;;;;;;;22.70;47.07;101242.66;7401098;19;1895;-40
2022/09/24 11:31:04;;;;;;;;;;;;;;;22.54;47.29;101241.47;7403110;19;1726;-43
2022/09/24 11:33:41;;;;;;;;;;;;;;;22.49;47.35;101235.66;7402587;19;1598;-41
2022/09/24 11:36:20;;;;;;;;;;;;;;;22.48;46.96;101233.94;7402210;19;1683;-41
2022/09/24 11:38:54;;;;;;;;;;;;;;;22.47;47.20;101228.72;7399745;19;2240;-43
2022/09/24 11:41:31;;;;;;;;;;;;;;;22.48;46.65;101247.44;7399040;19;1843;-43
2022/09/24 11:44:25;;;;;;;;;;;;;;;22.52;47.12;101230.00;7396244;19;1522;-43
2022/09/24 11:47:00;;;;;;;;;;;;;;;22.64;46.84;101239.59;7397416;19;1838;-40
2022/09/24 11:49:39;;;;;;;;;;;;;;;22.54;47.39;101230.69;7397833;19;2007;-42
2022/09/24 11:52:11;;;;;;;;;;;;;;;22.63;46.97;101232.47;7400871;19;1773;-42
2022/09/24 11:54:44;;;;;;;;;;;;;;;22.60;47.71;101234.63;7402604;19;1606;-44
2022/09/24 11:57:18;;;;;;;;;;;;;;;22.59;47.75;101232.94;7402003;19;1530;-42
2022/09/24 11:59:50;;;;;;;;;;;;;;;22.62;47.33;101227.22;7401767;19;1526;-41
2022/09/24 12:02:23;;;;;;;;;;;;;;;22.56;46.82;101230.53;7399146;19;1849;-41
2022/09/24 12:04:56;;;;;;;;;;;;;;;22.67;47.38;101238.44;7401011;19;1650;-41
2022/09/24 12:07:28;;;;;;;;;;;;;;;22.67;47.08;101234.91;6374896;19;10000774;-42
2022/09/24 12:10:00;;;;;;;;;;;;;;;22.57;47.73;101233.09;7391640;19;3071;-43
2022/09/24 12:12:34;;;;;;;;;;;;;;;22.56;49.09;101244.88;7394251;19;1691;-41
2022/09/24 12:15:06;;;;;;;;;;;;;;;22.52;48.66;101237.22;7392139;19;1664;-42
2022/09/24 12:17:38;;;;;;;;;;;;;;;22.57;48.49;101238.47;7397119;19;1608;-42
2022/09/24 12:20:11;;;;;;;;;;;;;;;22.56;48.85;101250.25;7399732;19;1539;-43
2022/09/24 12:22:40;;;;;;;;;;;;;;;22.54;48.83;101233.38;7399938;19;1842;-42
2022/09/24 12:25:13;;;;;;;;;;;;;;;22.66;49.12;101238.56;7401849;19;1618;-42
2022/09/24 12:27:45;;;;;;;;;;;;;;;22.70;49.03;101242.66;7400994;19;1714;-42
2022/09/24 12:33:16;;;;;;;;;;;;;;;22.55;48.77;101237.78;7400637;19;1450;-43
2022/09/24 12:36:00;;;;;;;;;;;;;;;22.54;48.64;101240.59;7400556;19;1699;-43
2022/09/24 12:38:34;;;;;;;;;;;;;;;22.52;48.79;101221.91;7399852;19;1651;-42
2022/09/24 12:41:20;;;;;;;;;;;;;;;22.55;49.05;101232.38;7394585;19;1860;-42
2022/09/24 12:43:52;;;;;;;;;;;;;;;22.52;48.53;101232.69;7396750;19;1850;-44
2022/09/24 12:46:23;;;;;;;;;;;;;;;22.38;47.52;101235.84;7396093;19;1745;-43
2022/09/24 12:48:54;;;;;;;;;;;;;;;22.28;46.63;101230.47;7399939;19;1268;-42
2022/09/24 12:51:23;;;;;;;;;;;;;;;22.27;46.40;101222.56;7397410;19;1592;-43
2022/09/24 12:53:59;;;;;;;;;;;;;;;22.22;46.83;101199.56;7397027;19;1731;-42
2022/09/24 12:56:29;;;;;;;;;;;;;;;22.27;46.15;101198.31;7398548;19;1387;-43
2022/09/24 12:59:01;;;;;;;;;;;;;;;22.27;46.96;101217.16;7397622;19;2047;-42
2022/09/24 13:01:32;;;;;;;;;;;;;;;22.21;47.06;101223.94;7400861;19;1897;-43
2022/09/24 13:04:16;;;;;;;;;;;;;;;22.23;47.50;101217.41;7404284;19;1861;-42
2022/09/24 13:06:47;;;;;;;;;;;;;;;22.20;47.30;101215.03;7408573;19;1907;-44
2022/09/24 13:09:26;;;;;;;;;;;;;;;22.22;46.92;101221.13;7409419;19;1000;-42
2022/09/24 13:12:02;;;;;;;;;;;;;;;22.20;46.41;101217.72;7408348;19;1545;-42
2022/09/24 13:14:34;;;;;;;;;;;;;;;22.19;45.97;101213.31;7408006;19;1470;-42
2022/09/24 13:17:07;;;;;;;;;;;;;;;22.17;45.72;101201.00;7407654;19;1411;-42
2022/09/24 13:19:37;;;;;;;;;;;;;;;22.20;45.34;101212.34;7408114;19;1859;-42
2022/09/24 13:22:06;;;;;;;;;;;;;;;22.17;45.56;101214.47;7404854;19;1857;-42
2022/09/24 13:24:46;;;;;;;;;;;;;;;22.15;45.32;101198.44;7408639;19;990;-42
2022/09/24 13:27:22;;;;;;;;;;;;;;;22.18;45.15;101210.75;7407508;19;1398;-42
2022/09/24 13:30:02;;;;;;;;;;;;;;;22.22;45.31;101202.25;7407357;19;1745;-42
2022/09/24 13:32:34;;;;;;;;;;;;;;;22.16;45.70;101194.78;7407199;19;1658;-42
2022/09/24 13:35:06;;;;;;;;;;;;;;;22.23;46.14;101200.41;7404046;19;1769;-42
2022/09/24 13:37:36;;;;;;;;;;;;;;;22.19;46.25;101204.38;7407514;19;1670;-43
2022/09/24 13:40:09;;;;;;;;;;;;;;;22.17;45.94;101199.16;7404232;19;1859;-42
2022/09/24 13:42:41;;;;;;;;;;;;;;;22.17;45.37;101201.84;7405578;19;1859;-42
2022/09/24 13:45:17;;;;;;;;;;;;;;;22.11;45.40;101202.44;7406346;19;1451;-42
2022/09/24 13:47:48;;;;;;;;;;;;;;;22.07;45.79;101206.41;7406504;19;1664;-44
2022/09/24 13:50:19;;;;;;;;;;;;;;;22.03;46.28;101205.84;7406312;19;1767;-42
2022/09/24 13:52:50;;;;;;;;;;;;;;;22.06;44.43;101204.69;7405820;19;1750;-42
2022/09/24 13:55:20;;;;;;;;;;;;;;;22.09;44.27;101199.03;7405338;19;1557;-42
2022/09/24 13:57:49;;;;;;;;;;;;;;;22.02;44.29;101203.28;7404944;19;1679;-42
2022/09/24 14:00:23;;;;;;;;;;;;;;;22.04;43.81;101190.53;7404958;19;1574;-42
2022/09/24 14:02:57;;;;;;;;;;;;;;;22.04;44.07;101174.34;7405213;19;1867;-45
2022/09/24 14:05:25;;;;;;;;;;;;;;;22.02;43.75;101195.19;7407142;19;1548;-42